Valley Village, California
Current Conditions -  °F | °C
As of 11:53 AM on Wednesday 26 Nov 2014 (Local Time) from KBUR Reporting Station
Clear Clear  
Wind Chill: 81°   Ceiling: Unl
Heat Index: 81°   Visibility: 10mi
Dew Point: 17°   Wind: 0mph
Humidity: 9%   Direction: NA
Pressure: 30.2"   Gusts: NA
Location:  34.17°N, 118.4°W
Report Text: KBUR 261953Z 00000KT 10SM CLR 27/M08 A3020 RMK AO2 SLP214 T02721083
Loading
Personal Weather Stations






























Interactive Weather Map New forecast layout! Learn more

10-Day Weather Forecast

Advertisements
Track Severe Weather on mobile